createdAt,value
2018-12-07T00:01:26.228Z,29.83
2018-12-07T00:03:55.822Z,28.23
2018-12-07T00:06:25.525Z,26.93
2018-12-07T00:08:55.961Z,25.30
2018-12-07T00:11:25.678Z,26.07
2018-12-07T00:13:55.488Z,26.93
2018-12-07T00:16:25.073Z,27.70
2018-12-07T00:18:55.022Z,27.30
2018-12-07T00:21:24.811Z,24.07
2018-12-07T00:23:54.538Z,23.10
2018-12-07T00:26:25.148Z,25.43
2018-12-07T00:28:54.852Z,27.97
2018-12-07T00:31:24.671Z,27.00
2018-12-07T00:33:54.473Z,24.57
2018-12-07T00:36:24.205Z,30.80
2018-12-07T00:38:54.221Z,25.87
2018-12-07T00:41:24.036Z,25.03
2018-12-07T00:43:53.947Z,27.27
2018-12-07T00:46:23.886Z,25.27
2018-12-07T00:48:53.758Z,28.70
2018-12-07T00:51:23.807Z,25.27
2018-12-07T00:53:53.815Z,29.60
2018-12-07T00:56:23.396Z,24.70
2018-12-07T00:58:53.839Z,28.10
2018-12-07T01:01:23.428Z,29.10
2018-12-07T01:03:53.174Z,26.63
2018-12-07T01:06:23.051Z,29.17
2018-12-07T01:08:52.863Z,24.90
2018-12-07T01:11:23.392Z,28.70
2018-12-07T01:13:53.033Z,37.07
2018-12-07T01:16:22.511Z,28.03
2018-12-07T01:18:52.416Z,27.50
2018-12-07T01:21:22.023Z,31.13
2018-12-07T01:23:51.857Z,32.63
2018-12-07T01:26:21.449Z,28.20
2018-12-07T01:28:51.704Z,29.10
2018-12-07T01:31:21.791Z,27.60
2018-12-07T01:33:51.927Z,37.87
2018-12-07T01:36:21.511Z,31.53
2018-12-07T01:38:51.534Z,40.97
2018-12-07T01:41:21.975Z,38.20
2018-12-07T01:43:51.772Z,35.03
2018-12-07T01:46:21.483Z,34.60
2018-12-07T01:48:51.497Z,38.40
2018-12-07T01:51:21.400Z,31.67
2018-12-07T01:53:51.420Z,36.27
2018-12-07T01:56:20.936Z,26.40
2018-12-07T01:58:50.428Z,30.03
2018-12-07T02:01:20.157Z,27.00
2018-12-07T02:03:50.387Z,24.80
2018-12-07T02:06:19.862Z,24.47
2018-12-07T02:08:49.371Z,26.17
2018-12-07T02:11:19.193Z,22.40
2018-12-07T02:13:49.837Z,26.07
2018-12-07T02:16:19.518Z,20.93
2018-12-07T02:18:49.343Z,22.10
2018-12-07T02:21:19.043Z,22.67
2018-12-07T02:23:49.785Z,20.33
2018-12-07T02:26:19.599Z,19.10
2018-12-07T02:28:50.026Z,18.77
2018-12-07T02:50:04.386Z,11.00
2018-12-07T02:52:34.035Z,13.83
2018-12-07T02:55:03.617Z,12.10
2018-12-07T02:57:33.206Z,11.60
2018-12-07T03:00:03.033Z,13.27
2018-12-07T03:02:33.061Z,11.00
2018-12-07T03:05:02.848Z,11.77
2018-12-07T03:07:33.031Z,12.07
2018-12-07T03:10:02.573Z,11.27
2018-12-07T03:12:32.281Z,11.67
2018-12-07T03:15:02.009Z,12.60
2018-12-07T03:17:31.798Z,14.97
2018-12-07T03:20:01.415Z,13.70
2018-12-07T03:22:32.049Z,12.73
2018-12-07T03:25:02.052Z,14.93
2018-12-07T03:27:31.783Z,14.67
2018-12-07T03:30:02.018Z,14.83
2018-12-07T03:32:32.102Z,13.30
2018-12-07T03:35:01.507Z,13.23
2018-12-07T03:37:31.518Z,12.90
2018-12-07T03:40:01.350Z,14.60
2018-12-07T03:42:31.085Z,13.93
2018-12-07T03:45:00.751Z,14.07
2018-12-07T03:47:30.686Z,15.50
2018-12-07T03:50:00.592Z,13.20
2018-12-07T03:52:30.405Z,15.17
2018-12-07T03:55:00.406Z,14.90
2018-12-07T03:57:30.423Z,15.43
2018-12-07T03:59:59.930Z,16.17
2018-12-07T04:02:29.956Z,17.60
2018-12-07T04:04:59.766Z,15.70
2018-12-07T04:07:29.778Z,15.30
2018-12-07T04:10:00.037Z,16.97
2018-12-07T04:12:29.910Z,19.03
2018-12-07T04:14:59.922Z,16.87
2018-12-07T04:17:29.953Z,16.73
2018-12-07T04:20:00.884Z,15.97
2018-12-07T04:22:30.604Z,14.77
2018-12-07T04:25:00.819Z,17.10
2018-12-07T04:27:30.521Z,17.03
2018-12-07T04:30:04.432Z,15.70
2018-12-07T04:32:34.038Z,15.67
2018-12-07T04:35:04.771Z,17.80
2018-12-07T04:37:35.921Z,16.23
2018-12-07T04:40:06.046Z,15.27
2018-12-07T04:42:36.358Z,15.97
2018-12-07T04:45:09.876Z,14.00
2018-12-07T04:47:40.204Z,14.37
2018-12-07T04:50:15.413Z,16.17
2018-12-07T04:52:45.963Z,14.80
2018-12-07T04:55:21.069Z,14.70
2018-12-07T04:57:56.313Z,17.33
2018-12-07T05:00:26.967Z,16.73
2018-12-07T05:02:58.401Z,17.83
2018-12-07T05:08:04.383Z,18.53
2018-12-07T05:10:34.923Z,18.97
2018-12-07T05:13:05.056Z,15.20
2018-12-07T05:15:34.835Z,16.97
2018-12-07T05:18:04.433Z,15.53
2018-12-07T05:20:33.939Z,18.10
2018-12-07T05:23:06.846Z,19.20
2018-12-07T05:25:36.950Z,17.97
2018-12-07T05:28:06.767Z,18.87
2018-12-07T05:30:36.464Z,17.80
2018-12-07T05:33:07.027Z,15.53
2018-12-07T05:35:36.932Z,18.60
2018-12-07T05:38:06.947Z,16.77
2018-12-07T05:40:36.631Z,16.30
2018-12-07T05:43:06.679Z,15.90
2018-12-07T05:45:36.175Z,17.07
2018-12-07T05:48:06.474Z,18.33
2018-12-07T05:50:36.493Z,15.80
2018-12-07T05:53:07.862Z,15.57
2018-12-07T05:55:37.664Z,16.50
2018-12-07T05:58:07.780Z,18.33
2018-12-07T06:00:37.689Z,17.07
2018-12-07T06:03:08.427Z,18.93
2018-12-07T06:05:38.254Z,24.90
2018-12-07T06:08:08.164Z,21.57
2018-12-07T06:10:38.187Z,21.37
2018-12-07T06:13:08.381Z,21.37
2018-12-07T06:15:38.213Z,16.17
2018-12-07T06:18:08.636Z,17.13
2018-12-07T06:20:41.397Z,15.03
2018-12-07T06:23:11.032Z,17.17
2018-12-07T06:25:40.514Z,16.43
2018-12-07T06:28:11.284Z,18.47
2018-12-07T06:30:41.070Z,17.47
2018-12-07T06:33:13.944Z,19.83
2018-12-07T06:35:43.870Z,20.73
2018-12-07T06:38:13.999Z,20.90
2018-12-07T06:40:43.479Z,18.70
2018-12-07T06:43:13.406Z,19.83
2018-12-07T06:45:43.035Z,21.17
2018-12-07T06:48:12.952Z,23.50
2018-12-07T06:50:42.518Z,17.17
2018-12-07T06:53:12.972Z,18.80
2018-12-07T06:55:43.187Z,20.83
2018-12-07T06:58:13.235Z,21.20
2018-12-07T07:00:43.006Z,17.87
2018-12-07T07:03:13.328Z,17.70
2018-12-07T07:05:43.457Z,19.60
2018-12-07T07:08:16.830Z,18.47
2018-12-07T07:10:46.670Z,21.07
2018-12-07T07:13:16.557Z,21.77
2018-12-07T07:15:46.582Z,22.77
2018-12-07T07:18:17.035Z,24.90
2018-12-07T07:20:47.038Z,28.07
2018-12-07T07:23:16.843Z,20.10
2018-12-07T07:25:46.544Z,17.57
2018-12-07T07:28:16.450Z,17.20
2018-12-07T07:30:46.485Z,16.73
2018-12-07T07:33:16.490Z,17.30
2018-12-07T07:35:46.623Z,19.47
2018-12-07T07:38:16.411Z,19.47
2018-12-07T07:40:46.249Z,16.57
2018-12-07T07:43:16.557Z,16.57
2018-12-07T07:45:46.364Z,18.03
2018-12-07T07:48:16.277Z,17.17
2018-12-07T07:50:46.321Z,17.33
2018-12-07T07:53:16.925Z,17.67
2018-12-07T07:55:46.855Z,16.30
2018-12-07T07:58:17.408Z,18.47
2018-12-07T08:00:47.316Z,20.17
2018-12-07T08:03:19.668Z,19.33
2018-12-07T08:05:49.466Z,22.67
2018-12-07T08:08:19.584Z,25.10
2018-12-07T08:10:49.719Z,22.03
2018-12-07T08:13:19.840Z,22.90
2018-12-07T08:15:50.361Z,21.17
2018-12-07T08:18:20.700Z,24.40
2018-12-07T08:20:51.428Z,21.37
2018-12-07T08:23:21.731Z,31.40
2018-12-07T08:25:51.954Z,21.50
2018-12-07T08:28:22.728Z,24.17
2018-12-07T08:30:52.820Z,21.40
2018-12-07T08:33:22.840Z,24.70
2018-12-07T08:35:52.939Z,23.93
2018-12-07T08:38:22.954Z,24.57
2018-12-07T08:40:52.882Z,23.40
2018-12-07T08:43:22.798Z,24.83
2018-12-07T08:45:53.030Z,25.93
2018-12-07T08:48:22.934Z,24.97
2018-12-07T08:50:52.948Z,24.80
2018-12-07T08:53:23.685Z,25.17
2018-12-07T08:55:53.786Z,22.40
2018-12-07T08:58:23.916Z,21.83
2018-12-07T09:00:53.942Z,21.37
2018-12-07T09:03:24.078Z,20.80
2018-12-07T09:05:54.171Z,20.47
2018-12-07T09:08:25.629Z,18.13
2018-12-07T09:10:55.558Z,17.90
2018-12-07T09:13:28.408Z,16.30
2018-12-07T09:15:59.061Z,16.50
2018-12-07T09:18:29.168Z,19.50
2018-12-07T09:20:59.476Z,14.30
2018-12-07T09:23:29.928Z,15.00
2018-12-07T09:26:00.047Z,15.33
2018-12-07T09:28:29.847Z,17.37
2018-12-07T09:31:00.196Z,15.37
2018-12-07T09:33:29.888Z,16.53
2018-12-07T09:35:59.476Z,15.60
2018-12-07T09:38:29.802Z,18.07
2018-12-07T09:40:59.828Z,16.53
2018-12-07T09:43:29.425Z,15.53
2018-12-07T09:46:00.366Z,16.40
2018-12-07T09:48:30.806Z,15.10
2018-12-07T09:51:01.027Z,19.87
2018-12-07T09:53:31.035Z,17.63
2018-12-07T09:56:01.270Z,19.17
2018-12-07T09:58:31.564Z,16.07
2018-12-07T10:01:02.030Z,16.10
2018-12-07T10:03:31.501Z,12.97
2018-12-07T10:06:01.030Z,15.07
2018-12-07T10:08:31.119Z,13.40
2018-12-07T10:11:01.257Z,38.00
2018-12-07T10:13:30.882Z,25.57
2018-12-07T10:16:01.015Z,15.57
2018-12-07T10:18:31.033Z,15.07
2018-12-07T10:21:01.228Z,14.73
2018-12-07T10:23:31.018Z,14.53
2018-12-07T10:26:01.275Z,14.80
2018-12-07T10:28:32.709Z,16.73
2018-12-07T10:31:02.531Z,15.17
2018-12-07T10:33:32.928Z,11.07
2018-12-07T10:36:02.844Z,13.30
2018-12-07T10:38:33.053Z,14.87
2018-12-07T10:41:02.887Z,13.47
2018-12-07T10:43:32.900Z,16.97
2018-12-07T10:46:03.015Z,15.67
2018-12-07T10:48:33.045Z,14.50
2018-12-07T10:51:07.966Z,14.23
2018-12-07T10:53:34.915Z,15.17
2018-12-07T10:56:04.819Z,12.97
2018-12-07T10:58:36.004Z,13.17
2018-12-07T11:01:10.079Z,14.13
2018-12-07T11:03:44.213Z,13.20
2018-12-07T11:06:17.980Z,11.67
2018-12-07T11:08:52.719Z,13.77
2018-12-07T11:11:26.846Z,12.70
2018-12-07T11:14:01.765Z,15.40
2018-12-07T11:16:36.206Z,11.37
2018-12-07T11:19:10.395Z,12.13
2018-12-07T11:21:44.427Z,12.20
2018-12-07T11:24:18.327Z,12.03
2018-12-07T11:26:52.346Z,11.33
2018-12-07T11:29:26.050Z,12.10
2018-12-07T11:32:00.066Z,11.10
2018-12-07T11:34:33.946Z,13.27
2018-12-07T11:37:03.958Z,13.47
2018-12-07T11:39:33.975Z,13.30
2018-12-07T11:42:03.710Z,10.23
2018-12-07T11:44:36.570Z,11.67
2018-12-07T11:47:06.794Z,12.40
2018-12-07T11:49:37.457Z,12.70
2018-12-07T11:52:07.743Z,12.50
2018-12-07T11:54:37.866Z,12.67
2018-12-07T11:57:07.990Z,13.07
2018-12-07T11:59:41.390Z,11.93
2018-12-07T12:02:11.210Z,13.77
2018-12-07T12:04:44.049Z,11.53
2018-12-07T12:07:14.210Z,13.17
2018-12-07T12:09:44.722Z,10.40
2018-12-07T12:12:14.847Z,12.03
2018-12-07T12:14:44.570Z,10.73
2018-12-07T12:17:14.461Z,12.33
2018-12-07T12:19:44.391Z,12.70
2018-12-07T12:22:14.410Z,15.50
2018-12-07T12:24:44.409Z,17.90
2018-12-07T12:27:20.676Z,13.40
2018-12-07T12:29:52.056Z,15.53
2018-12-07T12:32:22.757Z,11.70
2018-12-07T12:34:53.403Z,15.40
2018-12-07T12:37:23.420Z,11.87
2018-12-07T12:39:53.440Z,12.03
2018-12-07T12:42:23.253Z,8.80
2018-12-07T12:44:53.035Z,12.53
2018-12-07T12:47:22.777Z,13.40
2018-12-07T12:49:52.571Z,10.33
2018-12-07T12:52:22.476Z,13.23
2018-12-07T12:54:52.188Z,13.97
2018-12-07T12:57:21.997Z,23.10
2018-12-07T12:59:51.401Z,20.27
2018-12-07T13:02:21.211Z,17.70
2018-12-07T13:04:50.832Z,12.87
2018-12-07T13:07:20.650Z,12.67
2018-12-07T13:09:50.770Z,13.03
2018-12-07T13:12:20.470Z,12.40
2018-12-07T13:14:50.378Z,9.70
2018-12-07T13:17:20.400Z,13.10
2018-12-07T13:19:50.407Z,14.17
2018-12-07T13:22:20.476Z,15.80
2018-12-07T13:24:50.968Z,15.00
2018-12-07T13:27:20.773Z,13.57
2018-12-07T13:29:50.900Z,14.50
2018-12-07T13:32:20.613Z,16.97
2018-12-07T13:34:50.406Z,21.80
2018-12-07T13:37:20.460Z,17.37
2018-12-07T13:39:50.139Z,20.03
2018-12-07T13:42:20.528Z,19.33
2018-12-07T13:44:50.426Z,18.90
2018-12-07T13:47:20.488Z,22.27
2018-12-07T13:49:52.072Z,17.17
2018-12-07T13:52:22.329Z,25.47
2018-12-07T13:54:52.515Z,22.97
2018-12-07T13:57:22.458Z,13.60
2018-12-07T13:59:52.164Z,16.63
2018-12-07T14:02:22.521Z,15.27
2018-12-07T14:04:52.600Z,15.57
2018-12-07T14:07:23.344Z,16.93
2018-12-07T14:09:53.334Z,12.97
2018-12-07T14:12:23.462Z,13.60
2018-12-07T14:14:53.401Z,13.50
2018-12-07T14:17:23.203Z,11.50
2018-12-07T14:19:53.396Z,12.90
2018-12-07T14:22:23.413Z,19.10
2018-12-07T14:24:53.612Z,17.17
2018-12-07T14:27:23.422Z,14.63
2018-12-07T14:29:53.436Z,15.83
2018-12-07T14:32:23.306Z,14.23
2018-12-07T14:34:53.315Z,18.70
2018-12-07T14:37:23.611Z,17.90
2018-12-07T14:39:53.869Z,23.87
2018-12-07T14:42:23.681Z,25.07
2018-12-07T14:44:53.913Z,24.80
2018-12-07T14:47:23.814Z,25.97
2018-12-07T14:49:54.349Z,28.83
2018-12-07T14:52:24.250Z,23.77
2018-12-07T14:54:54.268Z,24.90
2018-12-07T14:57:24.035Z,24.93
2018-12-07T14:59:54.235Z,24.73
2018-12-07T15:02:24.110Z,25.53
2018-12-07T15:04:54.427Z,25.43
2018-12-07T15:07:25.405Z,25.73
2018-12-07T15:09:56.196Z,23.30
2018-12-07T15:12:27.017Z,24.70
2018-12-07T15:14:58.101Z,25.33
2018-12-07T15:17:28.295Z,21.47
2018-12-07T15:19:58.524Z,22.63
2018-12-07T15:22:28.505Z,22.47
2018-12-07T15:24:59.007Z,22.37
2018-12-07T15:27:29.661Z,25.17
2018-12-07T15:30:00.035Z,22.07
2018-12-07T15:32:31.438Z,20.93
2018-12-07T15:35:02.085Z,26.07
2018-12-07T15:37:33.087Z,21.70
2018-12-07T15:40:03.514Z,20.53
2018-12-07T15:42:33.459Z,18.47
2018-12-07T15:45:03.557Z,21.67
2018-12-07T15:47:34.069Z,18.83
2018-12-07T15:50:04.001Z,24.13
2018-12-07T15:52:34.371Z,24.97
2018-12-07T15:55:04.490Z,30.73
2018-12-07T15:57:37.970Z,20.57
2018-12-07T16:00:08.592Z,20.67
2018-12-07T16:02:38.883Z,22.27
2018-12-07T16:05:09.217Z,20.57
2018-12-07T16:07:40.066Z,21.53
2018-12-07T16:10:10.340Z,17.30
2018-12-07T16:12:40.594Z,18.00
2018-12-07T16:15:10.948Z,19.57
2018-12-07T16:17:41.466Z,17.57
2018-12-07T16:20:13.218Z,21.70
2018-12-07T16:22:43.478Z,16.43
2018-12-07T16:25:13.155Z,20.77
2018-12-07T16:27:43.560Z,18.43
2018-12-07T16:30:14.236Z,20.53
2018-12-07T16:32:44.106Z,28.43
2018-12-07T16:35:14.239Z,30.80
2018-12-07T16:37:44.692Z,27.10
2018-12-07T16:40:14.812Z,22.93
2018-12-07T16:42:45.025Z,22.57
2018-12-07T16:45:15.169Z,25.03
2018-12-07T16:47:45.277Z,26.83
2018-12-07T16:50:15.558Z,37.93
2018-12-07T16:52:45.778Z,31.07
2018-12-07T16:55:16.608Z,30.90
2018-12-07T16:57:46.920Z,30.30
2018-12-07T17:00:17.061Z,28.77
2018-12-07T17:02:47.544Z,28.53
2018-12-07T17:05:21.424Z,30.00
2018-12-07T17:07:51.602Z,29.83
2018-12-07T17:10:21.561Z,31.63
2018-12-07T17:12:51.310Z,27.57
2018-12-07T17:15:21.207Z,25.80
2018-12-07T17:17:51.075Z,25.03
2018-12-07T17:20:21.407Z,25.73
2018-12-07T17:22:51.580Z,23.67
2018-12-07T17:25:21.765Z,27.33
2018-12-07T17:27:52.428Z,28.97
2018-12-07T17:30:22.697Z,28.27
2018-12-07T17:32:52.773Z,26.13
2018-12-07T17:35:22.927Z,22.47
2018-12-07T17:37:52.979Z,22.73
2018-12-07T17:40:23.814Z,23.00
2018-12-07T17:42:54.709Z,27.33
2018-12-07T17:45:25.128Z,21.73
2018-12-07T17:47:56.110Z,24.50
2018-12-07T17:50:26.407Z,22.97
2018-12-07T17:52:58.070Z,24.93
2018-12-07T17:55:29.127Z,29.30
2018-12-07T17:58:00.611Z,24.60
2018-12-07T18:00:31.992Z,25.10
2018-12-07T18:03:02.824Z,24.40
2018-12-07T18:05:33.095Z,30.57
2018-12-07T18:08:03.388Z,30.70
2018-12-07T18:10:33.958Z,31.20
2018-12-07T18:13:05.385Z,29.77
2018-12-07T18:15:36.616Z,33.70
2018-12-07T18:18:07.589Z,34.50
2018-12-07T18:20:38.207Z,34.30
2018-12-07T18:23:09.994Z,37.37
2018-12-07T18:25:40.996Z,35.93
2018-12-07T18:28:12.308Z,34.03
2018-12-07T18:30:43.132Z,41.83
2018-12-07T18:33:14.389Z,38.47
2018-12-07T18:35:45.073Z,38.13
2018-12-07T18:38:15.287Z,38.47
2018-12-07T18:40:45.287Z,34.17
2018-12-07T18:43:15.456Z,37.53
2018-12-07T18:45:45.490Z,39.27
2018-12-07T18:48:17.686Z,34.20
2018-12-07T18:50:48.028Z,39.00
2018-12-07T18:53:18.692Z,36.40
2018-12-07T18:55:49.052Z,37.27
2018-12-07T18:58:19.167Z,37.93
2018-12-07T19:00:52.357Z,36.83
2018-12-07T19:03:22.493Z,35.07
2018-12-07T19:05:56.269Z,36.47
2018-12-07T19:08:26.395Z,31.97
2018-12-07T19:10:56.363Z,31.57
2018-12-07T19:13:27.617Z,32.03
2018-12-07T19:15:58.097Z,32.60
2018-12-07T19:18:29.506Z,29.33
2018-12-07T19:21:00.481Z,30.70
2018-12-07T19:23:30.628Z,27.47
2018-12-07T19:26:04.324Z,28.87
2018-12-07T19:28:35.826Z,30.90
2018-12-07T19:31:09.145Z,27.77
2018-12-07T19:33:39.508Z,25.40
2018-12-07T19:36:10.007Z,27.13
2018-12-07T19:38:41.400Z,28.43
2018-12-07T19:41:12.066Z,27.83
2018-12-07T19:43:42.644Z,26.07
2018-12-07T19:46:13.669Z,24.37
2018-12-07T19:48:44.582Z,23.80
2018-12-07T19:51:18.875Z,27.13
2018-12-07T19:53:49.070Z,27.20
2018-12-07T19:56:19.749Z,31.13
2018-12-07T19:58:54.634Z,24.60
2018-12-07T20:01:26.053Z,26.10
2018-12-07T20:03:57.028Z,27.93
2018-12-07T20:06:28.198Z,23.63
2018-12-07T20:09:02.261Z,25.23
2018-12-07T20:11:36.104Z,24.23
2018-12-07T20:14:08.421Z,23.77
2018-12-07T20:16:41.051Z,25.37
2018-12-07T20:19:12.020Z,26.10
2018-12-07T20:21:44.156Z,26.07
2018-12-07T20:24:15.661Z,23.77
2018-12-07T20:26:46.096Z,22.03
2018-12-07T20:29:16.291Z,24.43
2018-12-07T20:31:52.865Z,23.43
2018-12-07T20:34:26.841Z,22.80
2018-12-07T20:36:58.197Z,21.60
2018-12-07T20:39:30.840Z,23.43
2018-12-07T20:42:02.046Z,25.20
2018-12-07T20:44:33.899Z,24.63
2018-12-07T20:47:04.807Z,24.37
2018-12-07T20:49:36.485Z,26.83
2018-12-07T20:52:07.173Z,24.43
2018-12-07T20:54:43.071Z,25.67
2018-12-07T20:57:13.505Z,24.57
2018-12-07T20:59:47.030Z,23.03
2018-12-07T21:02:17.834Z,22.20
2018-12-07T21:04:49.230Z,22.17
2018-12-07T21:07:28.118Z,30.40
2018-12-07T21:10:02.947Z,26.57
2018-12-07T21:12:41.962Z,26.07
2018-12-07T21:15:12.600Z,24.37
2018-12-07T21:17:42.874Z,21.93
2018-12-07T21:20:18.353Z,25.97
2018-12-07T21:22:49.882Z,24.40
2018-12-07T21:25:19.632Z,28.10
2018-12-07T21:27:50.059Z,30.07
2018-12-07T21:30:29.827Z,30.67
2018-12-07T21:33:00.907Z,34.03
2018-12-07T21:35:39.980Z,30.20
2018-12-07T21:38:10.020Z,36.23
2018-12-07T21:40:40.075Z,35.37
2018-12-07T21:43:10.458Z,32.00
2018-12-07T21:45:41.138Z,33.53
2018-12-07T21:48:19.923Z,30.93
2018-12-07T21:50:52.478Z,31.40
2018-12-07T21:53:23.048Z,25.40
2018-12-07T21:55:53.145Z,24.63
2018-12-07T21:58:23.108Z,20.63
2018-12-07T22:00:53.214Z,21.80
2018-12-07T22:03:23.322Z,18.40
2018-12-07T22:05:53.191Z,23.07
2018-12-07T22:08:23.590Z,18.60
2018-12-07T22:10:53.866Z,18.20
2018-12-07T22:13:23.963Z,16.80
2018-12-07T22:15:53.758Z,19.50
2018-12-07T22:18:23.687Z,17.03
2018-12-07T22:20:54.064Z,18.07
2018-12-07T22:23:24.109Z,17.43
2018-12-07T22:25:54.601Z,18.90
2018-12-07T22:28:25.042Z,18.93
2018-12-07T22:30:55.457Z,22.87
2018-12-07T22:33:25.634Z,24.67
2018-12-07T22:35:55.512Z,19.80
2018-12-07T22:38:25.442Z,21.30
2018-12-07T22:40:55.087Z,20.67
2018-12-07T22:43:26.094Z,21.23
2018-12-07T22:45:56.007Z,18.30
2018-12-07T22:48:25.919Z,22.23
2018-12-07T22:50:55.833Z,18.93
2018-12-07T23:12:10.486Z,24.50
2018-12-07T23:14:40.802Z,22.40
2018-12-07T23:17:10.932Z,22.67
2018-12-07T23:19:40.666Z,24.37
2018-12-07T23:22:10.577Z,24.70
2018-12-07T23:24:41.198Z,18.57
2018-12-07T23:27:10.887Z,17.43
2018-12-07T23:29:40.699Z,20.97
2018-12-07T23:32:10.408Z,17.50
2018-12-07T23:34:40.021Z,23.83
2018-12-07T23:37:09.945Z,18.03
2018-12-07T23:39:39.466Z,18.17
2018-12-07T23:42:09.157Z,18.13
2018-12-07T23:44:38.959Z,16.93
2018-12-07T23:47:08.673Z,23.90
2018-12-07T23:49:38.387Z,20.43
2018-12-07T23:52:08.087Z,22.67
2018-12-07T23:54:37.897Z,18.97
2018-12-07T23:57:07.613Z,19.90
2018-12-07T23:59:37.057Z,20.50
